Time;durP1;ratioP1;P1;durP2;ratioP2;P2;SDS_P1;SDS_P2;PMS_P1;PMS_P2;Temp;Humidity;BMP_temperature;BMP_pressure;BME280_temperature;BME280_humidity;BME280_pressure;Samples;Min_cycle;Max_cycle;Signal;HPM_P1;HPM_P2
2021/05/23 00:00:49;;;;;;;;;;;;;;;6.50;75.76;98639.87;1744870;80;20526;-65
2021/05/23 00:03:18;;;;;;;;;;;;;;;6.57;75.82;98631.78;1734706;81;20161;-65
2021/05/23 00:05:46;;;;;;;;;;;;;;;6.61;75.83;98633.30;1738448;81;20185;-64
2021/05/23 00:08:15;;;;;;;;;;;;;;;6.65;75.84;98629.66;1743692;80;20173;-64
2021/05/23 00:10:47;;;;;;;;;;;;;;;6.68;75.86;98635.53;1743474;81;20998;-64
2021/05/23 00:13:15;;;;;;;;;;;;;;;6.73;76.00;98632.72;1724205;81;20169;-64
2021/05/23 00:15:54;;;;;;;;;;;;;;;6.76;75.92;98637.76;1742700;81;20141;-64
2021/05/23 00:18:21;;;;;;;;;;;;;;;6.79;75.90;98631.13;1748366;81;20217;-64
2021/05/23 00:20:47;;;;;;;;;;;;;;;6.82;75.90;98632.27;1745139;81;20139;-65
2021/05/23 00:23:14;;;;;;;;;;;;;;;6.84;75.97;98630.44;1746763;81;20905;-65
2021/05/23 00:25:40;;;;;;;;;;;;;;;6.86;75.93;98639.00;1746894;81;20583;-64
2021/05/23 00:28:07;;;;;;;;;;;;;;;6.89;75.99;98636.25;1742488;81;20148;-65
2021/05/23 00:30:34;;;;;;;;;;;;;;;6.89;75.94;98628.47;1740046;81;20162;-64
2021/05/23 00:33:00;;;;;;;;;;;;;;;6.89;75.98;98632.79;1743957;81;20127;-65
2021/05/23 00:35:28;;;;;;;;;;;;;;;6.90;76.05;98640.52;1741068;81;21596;-65
2021/05/23 00:37:54;;;;;;;;;;;;;;;6.93;76.11;98636.47;1744247;81;20481;-64
2021/05/23 00:40:21;;;;;;;;;;;;;;;6.94;76.11;98636.00;1731861;81;20566;-65
2021/05/23 00:42:48;;;;;;;;;;;;;;;6.99;76.17;98640.97;1743544;81;20565;-64
2021/05/23 00:45:17;;;;;;;;;;;;;;;7.03;76.26;98639.89;1747356;81;20162;-65
2021/05/23 00:47:44;;;;;;;;;;;;;;;7.06;76.19;98644.95;1745754;81;22162;-64
2021/05/23 00:50:13;;;;;;;;;;;;;;;7.09;76.18;98647.39;1746109;81;20185;-65
2021/05/23 00:52:39;;;;;;;;;;;;;;;7.11;76.21;98650.73;1742849;81;20193;-65
2021/05/23 00:55:06;;;;;;;;;;;;;;;7.12;76.31;98652.43;1747439;81;20162;-65
2021/05/23 00:57:33;;;;;;;;;;;;;;;7.13;76.19;98643.72;1748299;80;20182;-64
2021/05/23 00:59:59;;;;;;;;;;;;;;;7.14;76.27;98649.28;1723877;81;21122;-64
2021/05/23 01:02:46;;;;;;;;;;;;;;;7.15;76.26;98658.77;1739871;81;20169;-65
2021/05/23 01:05:15;;;;;;;;;;;;;;;7.16;76.34;98651.34;1746870;81;20161;-64
2021/05/23 01:07:42;;;;;;;;;;;;;;;7.20;76.31;98655.48;1741384;81;20516;-64
2021/05/23 01:10:12;;;;;;;;;;;;;;;7.21;76.32;98654.55;1743629;81;20570;-65
2021/05/23 01:12:50;;;;;;;;;;;;;;;7.22;76.41;98656.22;1738111;81;20941;-64
2021/05/23 01:15:17;;;;;;;;;;;;;;;7.24;76.46;98651.80;1746315;81;20185;-64
2021/05/23 01:17:45;;;;;;;;;;;;;;;7.24;76.51;98656.99;1748356;81;20141;-64
2021/05/23 01:20:36;;;;;;;;;;;;;;;7.27;76.56;98654.23;1735733;81;20161;-65
2021/05/23 01:23:17;;;;;;;;;;;;;;;7.32;76.57;98652.25;1702716;82;20144;-65
2021/05/23 01:25:46;;;;;;;;;;;;;;;7.32;76.52;98659.20;1703211;83;21744;-64
2021/05/23 01:28:13;;;;;;;;;;;;;;;7.35;76.57;98655.98;1698704;84;20164;-65
2021/05/23 01:30:42;;;;;;;;;;;;;;;7.38;76.67;98653.70;1699569;83;20219;-64
2021/05/23 01:33:09;;;;;;;;;;;;;;;7.42;76.70;98656.97;1698622;82;20171;-64
2021/05/23 01:35:40;;;;;;;;;;;;;;;7.44;76.75;98658.57;1686262;84;20686;-64
2021/05/23 01:38:12;;;;;;;;;;;;;;;7.48;76.86;98653.61;1701824;83;21125;-64
2021/05/23 01:40:38;;;;;;;;;;;;;;;7.54;76.85;98656.35;1702672;84;20219;-64
2021/05/23 01:43:05;;;;;;;;;;;;;;;7.61;76.90;98652.50;1702841;84;20588;-64
2021/05/23 01:45:32;;;;;;;;;;;;;;;7.67;76.94;98644.37;1703179;84;20537;-65
2021/05/23 01:47:59;;;;;;;;;;;;;;;7.72;76.97;98642.38;1701528;83;20838;-64
2021/05/23 01:50:26;;;;;;;;;;;;;;;7.79;77.03;98649.41;1702137;83;21669;-65
2021/05/23 01:52:58;;;;;;;;;;;;;;;7.82;76.98;98643.58;1701136;84;20151;-64
2021/05/23 01:55:25;;;;;;;;;;;;;;;7.89;77.02;98651.05;1702362;84;20191;-65
2021/05/23 01:57:52;;;;;;;;;;;;;;;7.92;77.02;98649.58;1728973;80;20924;-65
2021/05/23 02:00:21;;;;;;;;;;;;;;;7.95;77.10;98647.66;1744905;81;20148;-64
2021/05/23 02:02:48;;;;;;;;;;;;;;;8.02;77.17;98649.48;1742692;81;21183;-65
2021/05/23 02:05:15;;;;;;;;;;;;;;;8.08;77.16;98654.34;1743642;81;20551;-65
2021/05/23 02:07:41;;;;;;;;;;;;;;;8.11;77.15;98648.97;1740981;81;20170;-65
2021/05/23 02:10:11;;;;;;;;;;;;;;;8.14;77.14;98651.41;1746318;81;20252;-64
2021/05/23 02:12:39;;;;;;;;;;;;;;;8.17;77.21;98651.23;1743357;81;20169;-65
2021/05/23 02:15:06;;;;;;;;;;;;;;;8.19;77.14;98649.86;1742174;81;21062;-65
2021/05/23 02:17:36;;;;;;;;;;;;;;;8.20;77.16;98645.86;1740797;81;20530;-64
2021/05/23 02:20:05;;;;;;;;;;;;;;;8.21;77.14;98655.36;1743000;81;20165;-65
2021/05/23 02:22:40;;;;;;;;;;;;;;;8.21;77.18;98654.06;1745851;81;20130;-64
2021/05/23 02:25:08;;;;;;;;;;;;;;;8.21;77.15;98649.33;1746405;81;20371;-64
2021/05/23 02:27:42;;;;;;;;;;;;;;;8.21;77.23;98652.77;1741014;81;21019;-65
2021/05/23 02:30:12;;;;;;;;;;;;;;;8.21;77.21;98660.56;1744092;81;20743;-65
2021/05/23 02:32:39;;;;;;;;;;;;;;;8.22;77.27;98658.80;1746665;81;20232;-65
2021/05/23 02:35:06;;;;;;;;;;;;;;;8.24;77.31;98655.19;1745467;81;20157;-64
2021/05/23 02:37:33;;;;;;;;;;;;;;;8.25;77.30;98654.25;1736725;81;20173;-65
2021/05/23 02:40:02;;;;;;;;;;;;;;;8.28;77.37;98654.09;1742384;81;21092;-64
2021/05/23 02:42:28;;;;;;;;;;;;;;;8.33;77.39;98662.11;1750295;81;20167;-64
2021/05/23 02:44:55;;;;;;;;;;;;;;;8.36;77.43;98654.97;1751123;81;20150;-65
2021/05/23 02:47:21;;;;;;;;;;;;;;;8.40;77.47;98658.27;1745443;80;20158;-65
2021/05/23 02:49:49;;;;;;;;;;;;;;;8.43;77.49;98656.80;1734466;81;20515;-64
2021/05/23 02:52:15;;;;;;;;;;;;;;;8.47;77.48;98662.22;1746114;81;20996;-65
2021/05/23 02:54:43;;;;;;;;;;;;;;;8.50;77.48;98666.78;1743400;81;20561;-65
2021/05/23 02:57:09;;;;;;;;;;;;;;;8.56;77.52;98665.60;1746142;80;20532;-65
2021/05/23 02:59:36;;;;;;;;;;;;;;;8.64;77.60;98668.62;1744682;81;20203;-65
2021/05/23 03:02:02;;;;;;;;;;;;;;;8.74;77.64;98671.09;1740774;81;20145;-65
2021/05/23 03:04:29;;;;;;;;;;;;;;;8.83;77.58;98670.19;1744250;80;21083;-65
2021/05/23 03:06:55;;;;;;;;;;;;;;;8.92;77.61;98680.08;1726220;81;20498;-65
2021/05/23 03:09:21;;;;;;;;;;;;;;;9.04;77.66;98679.36;1745085;81;20143;-65
2021/05/23 03:11:47;;;;;;;;;;;;;;;9.16;77.62;98677.84;1741624;81;20166;-65
2021/05/23 03:14:14;;;;;;;;;;;;;;;9.24;77.58;98681.27;1742264;81;20189;-65
2021/05/23 03:16:41;;;;;;;;;;;;;;;9.32;77.51;98682.97;1747743;80;21296;-64
2021/05/23 03:19:08;;;;;;;;;;;;;;;9.37;77.49;98687.45;1746428;81;20162;-65
2021/05/23 03:21:35;;;;;;;;;;;;;;;9.35;77.47;98684.95;1746202;81;20169;-65
2021/05/23 03:24:03;;;;;;;;;;;;;;;9.36;77.50;98692.30;1737882;81;20579;-64
2021/05/23 03:26:29;;;;;;;;;;;;;;;9.38;77.54;98691.72;1742773;81;20186;-65
2021/05/23 03:28:56;;;;;;;;;;;;;;;9.40;77.59;98693.78;1748596;80;21226;-64
2021/05/23 03:31:22;;;;;;;;;;;;;;;9.44;77.62;98695.30;1750756;81;20146;-65
2021/05/23 03:33:48;;;;;;;;;;;;;;;9.48;77.59;98698.55;1747695;81;20206;-64
2021/05/23 03:36:15;;;;;;;;;;;;;;;9.47;77.57;98704.23;1742997;81;20185;-65
2021/05/23 03:38:48;;;;;;;;;;;;;;;9.48;77.55;98700.69;1742878;81;20546;-65
2021/05/23 03:41:15;;;;;;;;;;;;;;;9.50;77.62;98698.83;1737497;81;20919;-65
2021/05/23 03:43:41;;;;;;;;;;;;;;;9.53;77.68;98710.38;1739578;81;20295;-65
2021/05/23 03:46:08;;;;;;;;;;;;;;;9.58;77.71;98708.34;1743854;81;20143;-65
2021/05/23 03:48:34;;;;;;;;;;;;;;;9.64;77.74;98714.48;1742523;81;20161;-65
2021/05/23 03:51:00;;;;;;;;;;;;;;;9.69;77.72;98715.53;1746318;80;20145;-65
2021/05/23 03:53:26;;;;;;;;;;;;;;;9.73;77.67;98716.17;1741828;81;20903;-65
2021/05/23 03:55:53;;;;;;;;;;;;;;;9.77;77.71;98720.27;1742604;81;20161;-65
2021/05/23 03:58:19;;;;;;;;;;;;;;;9.83;77.74;98718.58;1737990;81;20523;-65
2021/05/23 04:00:45;;;;;;;;;;;;;;;9.87;77.67;98718.79;1746803;81;20604;-65
2021/05/23 04:03:12;;;;;;;;;;;;;;;9.91;77.69;98725.48;1743729;81;20188;-65
2021/05/23 04:05:38;;;;;;;;;;;;;;;9.97;77.71;98727.74;1743941;81;21088;-65
2021/05/23 04:08:04;;;;;;;;;;;;;;;10.00;77.67;98717.12;1744020;81;20193;-65
2021/05/23 04:10:41;;;;;;;;;;;;;;;10.04;77.64;98726.42;1742935;81;20149;-64
2021/05/23 04:13:08;;;;;;;;;;;;;;;10.09;77.67;98724.38;1735218;81;20193;-65
2021/05/23 04:15:33;;;;;;;;;;;;;;;10.16;77.65;98723.99;1740668;80;20161;-65
2021/05/23 04:18:00;;;;;;;;;;;;;;;10.20;77.65;98720.28;1737183;81;21930;-65
2021/05/23 04:20:27;;;;;;;;;;;;;;;10.25;77.66;98723.42;1745603;81;20183;-64
2021/05/23 04:22:54;;;;;;;;;;;;;;;10.28;77.55;98729.34;1740157;81;20516;-65
2021/05/23 04:25:21;;;;;;;;;;;;;;;10.30;77.60;98727.92;1740594;81;20161;-65
2021/05/23 04:27:49;;;;;;;;;;;;;;;10.35;77.65;98736.31;1738627;81;20201;-65
2021/05/23 04:30:18;;;;;;;;;;;;;;;10.39;77.54;98734.34;1743765;81;21081;-65
2021/05/23 04:32:44;;;;;;;;;;;;;;;10.43;77.59;98732.76;1752262;81;20195;-65
2021/05/23 04:35:11;;;;;;;;;;;;;;;10.49;77.57;98732.37;1756760;81;20166;-64
2021/05/23 04:37:38;;;;;;;;;;;;;;;10.53;77.46;98737.78;1744950;81;20163;-65
2021/05/23 04:40:05;;;;;;;;;;;;;;;10.57;77.45;98740.20;1746143;81;20183;-65
2021/05/23 04:42:33;;;;;;;;;;;;;;;10.59;77.43;98737.03;1738143;81;20514;-65
2021/05/23 04:44:59;;;;;;;;;;;;;;;10.61;77.39;98739.06;1735760;81;20615;-65
2021/05/23 04:47:27;;;;;;;;;;;;;;;10.65;77.44;98743.17;1742102;80;20145;-65
2021/05/23 04:49:53;;;;;;;;;;;;;;;10.72;77.37;98753.58;1736125;81;20152;-65
2021/05/23 04:52:19;;;;;;;;;;;;;;;10.76;77.43;98752.47;1731222;81;20189;-65
2021/05/23 04:54:46;;;;;;;;;;;;;;;10.85;77.39;98746.65;1753060;81;20913;-65
2021/05/23 04:57:12;;;;;;;;;;;;;;;10.85;77.24;98751.87;1739836;80;20149;-65
2021/05/23 04:59:38;;;;;;;;;;;;;;;10.85;77.17;98759.70;1746418;81;20861;-65
2021/05/23 05:02:05;;;;;;;;;;;;;;;10.83;77.10;98756.34;1751297;80;20166;-65
2021/05/23 05:04:31;;;;;;;;;;;;;;;10.86;77.23;98755.31;1743219;81;20165;-65
2021/05/23 05:06:57;;;;;;;;;;;;;;;10.93;77.26;98760.05;1747646;81;20994;-65
2021/05/23 05:09:24;;;;;;;;;;;;;;;11.10;77.40;98750.30;1743105;81;20678;-65
2021/05/23 05:11:50;;;;;;;;;;;;;;;11.42;77.51;98756.02;1741757;81;20583;-65
2021/05/23 05:14:16;;;;;;;;;;;;;;;11.84;77.30;98754.92;1740110;81;20816;-65
2021/05/23 05:16:43;;;;;;;;;;;;;;;12.18;77.09;98761.80;1741924;81;20155;-65
2021/05/23 05:19:10;;;;;;;;;;;;;;;12.47;76.75;98756.33;1740544;81;21721;-65
2021/05/23 05:21:36;;;;;;;;;;;;;;;12.60;76.45;98768.91;1738325;81;20482;-65
2021/05/23 05:24:03;;;;;;;;;;;;;;;12.86;76.55;98770.16;1744782;81;20494;-65
2021/05/23 05:26:30;;;;;;;;;;;;;;;13.34;76.62;98769.70;1712821;81;20224;-66
2021/05/23 05:28:56;;;;;;;;;;;;;;;13.99;76.19;98756.52;1744169;81;20165;-65
2021/05/23 05:31:23;;;;;;;;;;;;;;;14.31;75.51;98770.25;1745050;81;21042;-66
2021/05/23 05:33:49;;;;;;;;;;;;;;;14.30;75.08;98764.65;1749890;81;20152;-66
2021/05/23 05:36:16;;;;;;;;;;;;;;;14.12;74.96;98767.41;1745094;81;20145;-65
2021/05/23 05:38:42;;;;;;;;;;;;;;;14.09;75.07;98766.68;1740499;80;20137;-65
2021/05/23 05:41:08;;;;;;;;;;;;;;;14.12;74.87;98772.66;1741556;81;20201;-65
2021/05/23 05:43:35;;;;;;;;;;;;;;;14.38;75.43;98783.27;1742882;81;21068;-66
2021/05/23 05:46:01;;;;;;;;;;;;;;;14.70;74.64;98773.36;1745114;81;20131;-65
2021/05/23 05:48:27;;;;;;;;;;;;;;;14.96;74.93;98782.64;1744167;80;20145;-65
2021/05/23 05:50:54;;;;;;;;;;;;;;;15.36;74.31;98782.03;1738538;81;20139;-65
2021/05/23 05:53:20;;;;;;;;;;;;;;;16.38;75.13;98784.09;1739218;81;20141;-66
2021/05/23 05:55:47;;;;;;;;;;;;;;;17.13;73.58;98787.59;1738933;81;21967;-65
2021/05/23 05:58:13;;;;;;;;;;;;;;;17.84;73.25;98779.89;1737182;81;20173;-66
2021/05/23 06:00:40;;;;;;;;;;;;;;;19.02;73.71;98766.11;1744157;80;20548;-66
2021/05/23 06:03:06;;;;;;;;;;;;;;;19.44;71.51;98780.08;1741075;80;20185;-66
2021/05/23 06:05:32;;;;;;;;;;;;;;;18.97;70.43;98776.30;1741424;81;20161;-65
2021/05/23 06:07:59;;;;;;;;;;;;;;;18.48;70.41;98779.15;1745121;81;21895;-65
2021/05/23 06:10:25;;;;;;;;;;;;;;;18.28;70.59;98785.50;1745207;81;20264;-65
2021/05/23 06:12:51;;;;;;;;;;;;;;;18.64;70.82;98786.46;1741943;81;20164;-66
2021/05/23 06:15:17;;;;;;;;;;;;;;;18.76;70.73;98779.19;1752556;80;20615;-65
2021/05/23 06:17:44;;;;;;;;;;;;;;;18.65;69.81;98782.86;1743456;80;20209;-65
2021/05/23 06:20:11;;;;;;;;;;;;;;;17.94;69.08;98791.28;1747413;80;21071;-65
2021/05/23 06:22:37;;;;;;;;;;;;;;;17.37;69.79;98796.94;1731252;81;20916;-65
2021/05/23 06:25:05;;;;;;;;;;;;;;;17.59;69.61;98799.30;1743904;81;20170;-65
2021/05/23 06:27:32;;;;;;;;;;;;;;;17.27;68.97;98803.50;1747239;81;20524;-64
2021/05/23 06:29:58;;;;;;;;;;;;;;;16.94;68.70;98808.19;1742839;81;20526;-64
2021/05/23 06:32:24;;;;;;;;;;;;;;;16.72;68.98;98805.25;1741041;81;21075;-65
2021/05/23 06:34:51;;;;;;;;;;;;;;;17.11;69.51;98809.34;1748263;81;20171;-65
2021/05/23 06:37:17;;;;;;;;;;;;;;;17.37;69.12;98806.17;1740371;80;20129;-65
2021/05/23 06:39:44;;;;;;;;;;;;;;;17.66;68.36;98812.27;1736646;81;20825;-66
2021/05/23 06:42:10;;;;;;;;;;;;;;;17.56;67.55;98808.81;1744320;81;20173;-65
2021/05/23 06:44:37;;;;;;;;;;;;;;;17.47;67.91;98820.19;1749644;81;20955;-66
2021/05/23 06:47:03;;;;;;;;;;;;;;;17.65;67.83;98817.70;1742084;81;20157;-66
2021/05/23 06:49:30;;;;;;;;;;;;;;;17.44;66.75;98815.19;1740854;80;20204;-66
2021/05/23 06:51:56;;;;;;;;;;;;;;;16.99;66.82;98826.22;1741981;81;20165;-65
2021/05/23 06:54:23;;;;;;;;;;;;;;;16.52;66.11;98835.11;1743615;81;20189;-65
2021/05/23 06:56:49;;;;;;;;;;;;;;;16.03;66.78;98835.34;1741267;81;21723;-65
2021/05/23 06:59:16;;;;;;;;;;;;;;;15.66;66.69;98833.11;1744277;81;20534;-65
2021/05/23 07:01:42;;;;;;;;;;;;;;;15.25;66.76;98833.36;1740140;80;20145;-66
2021/05/23 07:04:08;;;;;;;;;;;;;;;14.89;66.86;98842.39;1742064;81;20167;-65
2021/05/23 07:06:35;;;;;;;;;;;;;;;14.57;66.78;98846.23;1747805;81;20651;-65
2021/05/23 07:09:01;;;;;;;;;;;;;;;14.31;67.05;98847.27;1743279;81;20992;-65
2021/05/23 07:11:28;;;;;;;;;;;;;;;14.30;67.25;98847.36;1740127;81;20169;-65
2021/05/23 07:13:54;;;;;;;;;;;;;;;14.55;67.82;98856.37;1738485;80;20499;-64
2021/05/23 07:16:21;;;;;;;;;;;;;;;15.23;67.68;98853.67;1743471;81;20565;-65
2021/05/23 07:18:47;;;;;;;;;;;;;;;15.57;66.84;98852.25;1746877;81;20155;-65
2021/05/23 07:21:14;;;;;;;;;;;;;;;15.61;66.16;98856.33;1744095;81;21763;-65
2021/05/23 07:23:43;;;;;;;;;;;;;;;15.67;66.12;98859.28;1736172;81;21121;-65
2021/05/23 07:26:09;;;;;;;;;;;;;;;16.18;66.96;98868.27;1727985;81;20186;-65
2021/05/23 07:28:36;;;;;;;;;;;;;;;16.59;66.62;98866.57;1738299;81;20257;-65
2021/05/23 07:31:03;;;;;;;;;;;;;;;16.78;65.72;98861.41;1745906;81;20157;-65
2021/05/23 07:33:29;;;;;;;;;;;;;;;17.00;65.58;98876.20;1744784;81;20984;-65
2021/05/23 07:35:56;;;;;;;;;;;;;;;17.06;65.05;98882.75;1742292;81;20212;-66
2021/05/23 07:38:22;;;;;;;;;;;;;;;17.14;64.74;98882.91;1743417;80;20570;-66
2021/05/23 07:40:49;;;;;;;;;;;;;;;17.02;64.50;98886.61;1744854;81;20129;-66
2021/05/23 07:43:17;;;;;;;;;;;;;;;16.83;64.12;98887.85;1742978;81;20166;-66
2021/05/23 07:45:43;;;;;;;;;;;;;;;16.55;63.97;98883.59;1742509;81;21118;-65
2021/05/23 07:48:10;;;;;;;;;;;;;;;16.25;63.86;98900.22;1745145;80;20152;-65
2021/05/23 07:50:36;;;;;;;;;;;;;;;16.06;64.18;98892.52;1744847;81;20145;-65
2021/05/23 07:53:03;;;;;;;;;;;;;;;16.00;64.28;98898.79;1745623;81;20151;-65
2021/05/23 07:55:29;;;;;;;;;;;;;;;16.00;64.13;98901.42;1745604;81;20137;-65
2021/05/23 07:57:55;;;;;;;;;;;;;;;15.84;63.81;98907.10;1746431;81;21799;-65
2021/05/23 08:00:22;;;;;;;;;;;;;;;15.79;63.86;98908.78;1747064;81;20175;-66
2021/05/23 08:02:48;;;;;;;;;;;;;;;15.88;64.09;98919.90;1739243;81;20177;-66
2021/05/23 08:05:14;;;;;;;;;;;;;;;16.03;63.67;98918.28;1738110;81;20173;-66
2021/05/23 08:07:41;;;;;;;;;;;;;;;16.00;63.50;98917.22;1739200;81;20542;-66
2021/05/23 08:10:08;;;;;;;;;;;;;;;15.84;62.94;98925.05;1746370;81;20977;-66
2021/05/23 08:12:35;;;;;;;;;;;;;;;15.67;62.95;98929.50;1744590;81;20186;-66
2021/05/23 08:15:02;;;;;;;;;;;;;;;15.66;62.81;98930.47;1740452;81;20172;-65
2021/05/23 08:17:28;;;;;;;;;;;;;;;15.58;62.51;98931.56;1740815;81;20590;-66
2021/05/23 08:19:55;;;;;;;;;;;;;;;15.48;62.73;98939.83;1740212;81;20171;-66
2021/05/23 08:22:21;;;;;;;;;;;;;;;15.30;62.41;98937.71;1746192;81;20991;-66
2021/05/23 08:24:47;;;;;;;;;;;;;;;15.14;62.43;98950.39;1742517;80;20201;-66
2021/05/23 08:27:14;;;;;;;;;;;;;;;15.05;62.20;98951.12;1744509;81;20833;-66
2021/05/23 08:29:41;;;;;;;;;;;;;;;14.95;62.52;98947.87;1745203;81;20184;-66
2021/05/23 08:32:07;;;;;;;;;;;;;;;15.02;62.52;98951.36;1742715;81;20151;-65
2021/05/23 08:34:35;;;;;;;;;;;;;;;15.15;62.56;98956.00;1744504;81;21696;-66
2021/05/23 08:37:02;;;;;;;;;;;;;;;15.37;62.93;98955.98;1742621;81;20179;-67
2021/05/23 08:39:30;;;;;;;;;;;;;;;15.75;62.66;98958.70;1724180;81;20169;-67
2021/05/23 08:41:57;;;;;;;;;;;;;;;16.14;62.47;98957.73;1743355;81;20505;-67
2021/05/23 08:44:25;;;;;;;;;;;;;;;16.26;61.80;98954.07;1739967;81;20161;-67
2021/05/23 08:46:52;;;;;;;;;;;;;;;16.37;61.99;98964.20;1745054;81;21017;-67
2021/05/23 08:49:24;;;;;;;;;;;;;;;16.62;61.89;98966.45;1741563;80;20568;-67
2021/05/23 08:51:56;;;;;;;;;;;;;;;16.99;62.16;98968.62;1742648;81;20171;-67
2021/05/23 08:54:19;;;;;;;;;;;;;;;17.35;61.65;98974.33;1739526;81;20188;-67
2021/05/23 08:56:46;;;;;;;;;;;;;;;17.46;60.72;98971.59;1742431;81;20147;-67
2021/05/23 08:59:13;;;;;;;;;;;;;;;17.25;60.64;98969.00;1717206;81;21025;-67
2021/05/23 09:01:40;;;;;;;;;;;;;;;17.07;60.42;98984.63;1739438;81;20173;-67
2021/05/23 09:04:09;;;;;;;;;;;;;;;16.93;60.32;98983.17;1742705;81;20559;-67
2021/05/23 09:06:37;;;;;;;;;;;;;;;16.81;60.36;98979.44;1745683;81;20153;-67
2021/05/23 09:09:11;;;;;;;;;;;;;;;16.72;60.26;98983.17;1746645;81;20153;-67
2021/05/23 09:11:39;;;;;;;;;;;;;;;16.74;60.34;98979.91;1742991;81;21738;-67
2021/05/23 09:14:06;;;;;;;;;;;;;;;16.78;60.10;98982.68;1739935;81;20504;-68
2021/05/23 09:16:38;;;;;;;;;;;;;;;16.82;60.24;98983.25;1743309;81;20540;-66
2021/05/23 09:19:04;;;;;;;;;;;;;;;17.09;60.23;98980.55;1742006;81;20512;-66
2021/05/23 09:21:36;;;;;;;;;;;;;;;17.20;59.88;98990.53;1745052;80;20126;-66
2021/05/23 09:24:08;;;;;;;;;;;;;;;17.36;59.75;98994.46;1744787;81;21088;-66
2021/05/23 09:26:44;;;;;;;;;;;;;;;17.49;59.76;98989.80;1754069;81;20180;-66
2021/05/23 09:29:15;;;;;;;;;;;;;;;17.63;59.38;98992.05;1740666;80;20162;-65
2021/05/23 09:31:42;;;;;;;;;;;;;;;17.74;59.17;98999.52;1740765;81;20137;-66
2021/05/23 09:34:09;;;;;;;;;;;;;;;17.71;58.36;98999.30;1741183;80;20190;-65
2021/05/23 09:36:45;;;;;;;;;;;;;;;17.49;58.27;99001.66;1746363;81;20925;-66
2021/05/23 09:39:11;;;;;;;;;;;;;;;17.28;58.20;99003.06;1748398;80;20143;-65
2021/05/23 09:41:38;;;;;;;;;;;;;;;17.36;58.64;99006.34;1741368;80;20161;-65
2021/05/23 09:44:19;;;;;;;;;;;;;;;17.50;58.27;99004.64;1751491;80;20539;-66
2021/05/23 09:47:04;;;;;;;;;;;;;;;17.58;58.36;99010.09;1712369;82;20136;-66
2021/05/23 09:49:29;;;;;;;;;;;;;;;17.73;57.74;99017.63;1705536;83;20594;-66
2021/05/23 09:52:00;;;;;;;;;;;;;;;17.73;57.50;99016.31;1711453;83;20597;-66
2021/05/23 09:54:28;;;;;;;;;;;;;;;17.59;56.99;99024.98;1704723;82;20680;-65
2021/05/23 09:56:55;;;;;;;;;;;;;;;17.60;57.28;99018.72;1712894;82;20171;-66
2021/05/23 09:59:24;;;;;;;;;;;;;;;17.81;57.00;99026.61;1710249;82;20168;-66
2021/05/23 10:01:50;;;;;;;;;;;;;;;17.72;56.67;99015.97;1712523;83;21054;-66
2021/05/23 10:04:23;;;;;;;;;;;;;;;17.72;57.21;99022.58;1713088;82;20164;-66
2021/05/23 10:07:10;;;;;;;;;;;;;;;17.87;56.79;99017.30;1710735;82;20231;-66
2021/05/23 10:09:38;;;;;;;;;;;;;;;18.05;57.18;99018.30;1709353;82;20188;-66
2021/05/23 10:12:09;;;;;;;;;;;;;;;18.65;57.21;99022.60;1706771;83;20593;-66
2021/05/23 10:14:36;;;;;;;;;;;;;;;18.97;56.37;99012.56;1703429;82;21057;-66
2021/05/23 10:17:04;;;;;;;;;;;;;;;19.07;56.25;99016.98;1677990;83;20223;-65
2021/05/23 10:19:32;;;;;;;;;;;;;;;18.75;54.92;99020.82;1671949;84;20175;-66
2021/05/23 10:22:01;;;;;;;;;;;;;;;18.16;55.44;99029.72;1682609;81;20210;-65
2021/05/23 10:24:30;;;;;;;;;;;;;;;18.01;55.62;99035.40;1720450;81;20165;-66
2021/05/23 10:27:00;;;;;;;;;;;;;;;18.03;55.79;99036.08;1728963;81;21040;-67
2021/05/23 10:29:28;;;;;;;;;;;;;;;18.04;55.30;99033.80;1730011;81;20286;-66
2021/05/23 10:32:13;;;;;;;;;;;;;;;17.93;55.08;99048.45;1728202;81;20250;-67
2021/05/23 10:34:46;;;;;;;;;;;;;;;17.79;55.16;99043.55;1724695;81;20384;-66
2021/05/23 10:37:15;;;;;;;;;;;;;;;17.99;55.38;99039.14;1725967;81;20170;-66
2021/05/23 10:39:51;;;;;;;;;;;;;;;18.04;54.21;99046.18;1725819;81;21086;-67
2021/05/23 10:42:16;;;;;;;;;;;;;;;17.50;53.76;99044.23;1719227;81;20202;-65
2021/05/23 10:44:46;;;;;;;;;;;;;;;17.23;54.61;99043.02;1729204;81;20182;-66
2021/05/23 10:47:15;;;;;;;;;;;;;;;17.18;54.03;99054.94;1729089;81;20554;-66
2021/05/23 10:49:53;;;;;;;;;;;;;;;16.81;54.15;99051.45;1723769;81;20186;-66
2021/05/23 10:52:19;;;;;;;;;;;;;;;16.50;53.52;99061.05;1724400;81;21577;-66
2021/05/23 10:55:13;;;;;;;;;;;;;;;16.23;54.25;99066.27;1729132;81;20182;-65
2021/05/23 10:57:49;;;;;;;;;;;;;;;16.22;54.45;99075.14;1724327;81;20250;-65
2021/05/23 11:00:27;;;;;;;;;;;;;;;16.55;54.53;99073.33;1731627;81;20168;-66
2021/05/23 11:02:55;;;;;;;;;;;;;;;16.69;54.48;99066.47;1727606;81;20615;-66
2021/05/23 11:05:29;;;;;;;;;;;;;;;17.11;54.65;99059.91;1731632;81;21002;-67
2021/05/23 11:08:02;;;;;;;;;;;;;;;17.35;53.88;99061.41;1726274;81;20213;-65
2021/05/23 11:10:41;;;;;;;;;;;;;;;17.35;53.75;99071.96;1735017;81;20225;-65
2021/05/23 11:13:12;;;;;;;;;;;;;;;17.33;54.04;99073.89;1730439;81;20203;-66
2021/05/23 11:15:47;;;;;;;;;;;;;;;17.37;53.71;99070.03;1724631;80;20209;-65
2021/05/23 11:18:25;;;;;;;;;;;;;;;17.17;53.03;99067.78;1740125;81;21622;-66
2021/05/23 11:21:03;;;;;;;;;;;;;;;16.91;53.36;99071.28;1743847;81;20179;-66
2021/05/23 11:23:31;;;;;;;;;;;;;;;16.75;53.43;99080.45;1748201;80;20256;-65
2021/05/23 11:26:06;;;;;;;;;;;;;;;16.74;51.92;99082.71;1742432;81;20169;-65
2021/05/23 11:28:32;;;;;;;;;;;;;;;16.19;51.86;99080.66;1744011;80;20169;-65
2021/05/23 11:30:59;;;;;;;;;;;;;;;15.83;52.75;99082.64;1725011;81;21072;-65
2021/05/23 11:33:25;;;;;;;;;;;;;;;15.66;52.64;99085.73;1743484;81;20151;-65
2021/05/23 11:35:53;;;;;;;;;;;;;;;15.38;52.92;99093.14;1743460;80;20157;-65
2021/05/23 11:38:23;;;;;;;;;;;;;;;15.28;53.63;99095.27;1739601;81;20169;-65
2021/05/23 11:40:51;;;;;;;;;;;;;;;15.40;53.84;99084.66;1739697;81;20194;-64
2021/05/23 11:43:22;;;;;;;;;;;;;;;15.77;53.68;99087.56;1741679;81;21003;-65
2021/05/23 11:46:03;;;;;;;;;;;;;;;15.87;53.45;99089.31;1745329;80;20182;-66
2021/05/23 11:48:32;;;;;;;;;;;;;;;15.94;52.97;99088.86;1745627;81;20541;-67
2021/05/23 11:50:59;;;;;;;;;;;;;;;15.76;53.16;99089.33;1743270;81;20141;-66
2021/05/23 11:53:36;;;;;;;;;;;;;;;15.83;53.12;99090.53;1744977;81;20185;-67
2021/05/23 11:56:03;;;;;;;;;;;;;;;15.86;53.31;99090.29;1743742;80;21157;-66
2021/05/23 11:58:29;;;;;;;;;;;;;;;15.97;53.72;99101.77;1739460;81;20179;-66
2021/05/23 12:01:02;;;;;;;;;;;;;;;16.40;54.12;99091.24;1739624;80;20165;-65
2021/05/23 12:03:28;;;;;;;;;;;;;;;16.75;53.52;99096.27;1731124;80;20530;-66
2021/05/23 12:05:54;;;;;;;;;;;;;;;16.76;53.48;99084.78;1741910;81;20175;-65
2021/05/23 12:08:23;;;;;;;;;;;;;;;16.81;53.22;99088.85;1743502;81;21762;-66
2021/05/23 12:11:05;;;;;;;;;;;;;;;16.66;52.88;99093.05;1747462;81;20145;-66
2021/05/23 12:13:44;;;;;;;;;;;;;;;16.39;52.87;99102.75;1748924;81;20187;-66
2021/05/23 12:16:16;;;;;;;;;;;;;;;16.39;53.54;99102.75;1739071;80;20163;-66
2021/05/23 12:18:47;;;;;;;;;;;;;;;16.94;53.89;99097.39;1744926;81;20145;-66
2021/05/23 12:21:18;;;;;;;;;;;;;;;17.47;53.59;99091.18;1752297;80;21038;-66
2021/05/23 12:23:47;;;;;;;;;;;;;;;17.80;53.35;99090.09;1743856;81;20166;-66
2021/05/23 12:26:16;;;;;;;;;;;;;;;17.82;52.82;99087.68;1744908;81;20173;-66
2021/05/23 12:28:45;;;;;;;;;;;;;;;17.58;52.52;99085.32;1743182;80;20145;-66
2021/05/23 12:31:16;;;;;;;;;;;;;;;17.34;52.53;99098.00;1744172;81;20244;-66
2021/05/23 12:33:54;;;;;;;;;;;;;;;17.00;52.73;99096.90;1744972;81;21036;-66
2021/05/23 12:36:23;;;;;;;;;;;;;;;16.70;52.47;99102.39;1741089;81;20165;-66
2021/05/23 12:39:08;;;;;;;;;;;;;;;16.52;52.90;99105.20;1744419;80;20174;-66
2021/05/23 12:41:40;;;;;;;;;;;;;;;16.64;52.92;99101.59;1753435;81;20561;-66
2021/05/23 12:44:26;;;;;;;;;;;;;;;16.92;53.21;99109.89;1748043;81;20149;-65
2021/05/23 12:46:53;;;;;;;;;;;;;;;17.46;53.49;99106.19;1744402;81;21009;-66
2021/05/23 12:49:21;;;;;;;;;;;;;;;17.97;53.15;99105.30;1746624;81;20164;-66
2021/05/23 12:51:49;;;;;;;;;;;;;;;17.80;51.91;99099.34;1746088;81;20220;-67
2021/05/23 12:54:25;;;;;;;;;;;;;;;17.55;52.21;99105.39;1749144;80;20508;-67
2021/05/23 12:56:52;;;;;;;;;;;;;;;17.39;52.12;99107.66;1744022;80;20189;-66